sensor_id;sensor_type;location;lat;lon;timestamp;pressure;altitude;pressure_sealevel;temperature;humidity
20015;BME280;61787;42.022;23.078;2024-01-30T00:00:42;98713.50;;;1.67;45.54
20015;BME280;61787;42.022;23.078;2024-01-30T00:01:44;98716.69;;;1.55;45.65
20015;BME280;61787;42.022;23.078;2024-01-30T00:02:46;98721.88;;;1.51;45.50
20015;BME280;61787;42.022;23.078;2024-01-30T00:03:47;98722.25;;;1.45;45.55
20015;BME280;61787;42.022;23.078;2024-01-30T00:04:49;98720.94;;;1.09;45.50
20015;BME280;61787;42.022;23.078;2024-01-30T00:05:51;98721.13;;;0.99;44.99
20015;BME280;61787;42.022;23.078;2024-01-30T00:06:52;98724.41;;;0.77;45.47
20015;BME280;61787;42.022;23.078;2024-01-30T00:07:54;98722.19;;;0.65;45.91
20015;BME280;61787;42.022;23.078;2024-01-30T00:08:56;98719.47;;;0.46;46.71
20015;BME280;61787;42.022;23.078;2024-01-30T00:09:58;98717.03;;;0.31;47.16
20015;BME280;61787;42.022;23.078;2024-01-30T00:10:59;98726.25;;;0.19;47.27
20015;BME280;61787;42.022;23.078;2024-01-30T00:12:02;98729.81;;;0.15;47.30
20015;BME280;61787;42.022;23.078;2024-01-30T00:13:03;98734.56;;;-0.01;47.87
20015;BME280;61787;42.022;23.078;2024-01-30T00:14:05;98731.31;;;0.02;48.06
20015;BME280;61787;42.022;23.078;2024-01-30T00:15:07;98733.34;;;0.10;48.50
20015;BME280;61787;42.022;23.078;2024-01-30T00:16:21;98731.56;;;0.25;49.02
20015;BME280;61787;42.022;23.078;2024-01-30T00:17:23;98726.81;;;0.22;48.38
20015;BME280;61787;42.022;23.078;2024-01-30T00:18:26;98724.56;;;0.29;49.06
20015;BME280;61787;42.022;23.078;2024-01-30T00:19:28;98725.06;;;0.31;49.47
20015;BME280;61787;42.022;23.078;2024-01-30T00:20:30;98725.56;;;0.33;49.96
20015;BME280;61787;42.022;23.078;2024-01-30T00:21:31;98726.59;;;0.37;49.01
20015;BME280;61787;42.022;23.078;2024-01-30T00:22:33;98732.06;;;0.27;51.25
20015;BME280;61787;42.022;23.078;2024-01-30T00:23:34;98732.88;;;0.27;51.31
20015;BME280;61787;42.022;23.078;2024-01-30T00:24:36;98729.03;;;0.33;51.66
20015;BME280;61787;42.022;23.078;2024-01-30T00:25:38;98729.72;;;0.44;51.65
20015;BME280;61787;42.022;23.078;2024-01-30T00:26:39;98731.25;;;0.50;51.20
20015;BME280;61787;42.022;23.078;2024-01-30T00:27:41;98730.81;;;0.62;50.48
20015;BME280;61787;42.022;23.078;2024-01-30T00:28:43;98724.66;;;0.62;50.45
20015;BME280;61787;42.022;23.078;2024-01-30T00:29:44;98725.66;;;0.66;50.59
20015;BME280;61787;42.022;23.078;2024-01-30T00:30:46;98724.66;;;0.62;50.89
20015;BME280;61787;42.022;23.078;2024-01-30T00:31:48;98731.69;;;0.57;51.30
20015;BME280;61787;42.022;23.078;2024-01-30T00:32:49;98725.28;;;0.53;51.58
20015;BME280;61787;42.022;23.078;2024-01-30T00:33:51;98725.00;;;0.55;51.61
20015;BME280;61787;42.022;23.078;2024-01-30T00:34:53;98728.63;;;0.45;51.88
20015;BME280;61787;42.022;23.078;2024-01-30T00:35:55;98729.56;;;0.35;52.44
20015;BME280;61787;42.022;23.078;2024-01-30T00:36:56;98729.94;;;0.29;52.84
20015;BME280;61787;42.022;23.078;2024-01-30T00:37:58;98730.50;;;0.26;53.17
20015;BME280;61787;42.022;23.078;2024-01-30T00:39:00;98731.00;;;0.28;53.06
20015;BME280;61787;42.022;23.078;2024-01-30T00:40:01;98733.19;;;0.26;53.13
20015;BME280;61787;42.022;23.078;2024-01-30T00:41:03;98729.47;;;0.22;53.28
20015;BME280;61787;42.022;23.078;2024-01-30T00:42:05;98727.88;;;0.21;53.05
20015;BME280;61787;42.022;23.078;2024-01-30T00:43:06;98738.72;;;0.10;53.13
20015;BME280;61787;42.022;23.078;2024-01-30T00:44:08;98734.13;;;-0.08;53.52
20015;BME280;61787;42.022;23.078;2024-01-30T00:45:16;98728.41;;;-0.02;53.29
20015;BME280;61787;42.022;23.078;2024-01-30T00:46:18;98741.00;;;-0.02;53.47
20015;BME280;61787;42.022;23.078;2024-01-30T00:47:20;98737.91;;;-0.14;53.51
20015;BME280;61787;42.022;23.078;2024-01-30T00:48:21;98742.25;;;-0.18;53.88
20015;BME280;61787;42.022;23.078;2024-01-30T00:49:23;98736.91;;;-0.18;54.00
20015;BME280;61787;42.022;23.078;2024-01-30T00:50:25;98739.06;;;-0.21;54.13
20015;BME280;61787;42.022;23.078;2024-01-30T00:51:26;98736.44;;;-0.26;54.07
20015;BME280;61787;42.022;23.078;2024-01-30T00:52:31;98730.06;;;-0.30;54.43
20015;BME280;61787;42.022;23.078;2024-01-30T00:53:34;98733.94;;;-0.41;54.56
20015;BME280;61787;42.022;23.078;2024-01-30T00:54:36;98728.56;;;-0.41;54.58
20015;BME280;61787;42.022;23.078;2024-01-30T00:55:37;98730.03;;;-0.54;55.06
20015;BME280;61787;42.022;23.078;2024-01-30T00:56:39;98728.72;;;-0.56;55.30
20015;BME280;61787;42.022;23.078;2024-01-30T00:57:41;98732.00;;;-0.65;55.55
20015;BME280;61787;42.022;23.078;2024-01-30T00:58:45;98732.31;;;-0.66;55.28
20015;BME280;61787;42.022;23.078;2024-01-30T00:59:47;98728.28;;;-0.69;55.40
20015;BME280;61787;42.022;23.078;2024-01-30T01:00:49;98727.97;;;-0.62;54.76
20015;BME280;61787;42.022;23.078;2024-01-30T01:01:50;98738.97;;;-0.64;55.11
20015;BME280;61787;42.022;23.078;2024-01-30T01:02:53;98732.63;;;-0.73;54.98
20015;BME280;61787;42.022;23.078;2024-01-30T01:03:54;98728.59;;;-0.75;55.32
20015;BME280;61787;42.022;23.078;2024-01-30T01:04:56;98734.44;;;-0.68;55.35
20015;BME280;61787;42.022;23.078;2024-01-30T01:05:58;98727.72;;;-0.66;54.98
20015;BME280;61787;42.022;23.078;2024-01-30T01:06:59;98739.53;;;-0.67;54.99
20015;BME280;61787;42.022;23.078;2024-01-30T01:08:02;98733.13;;;-0.71;55.12
20015;BME280;61787;42.022;23.078;2024-01-30T01:09:03;98734.75;;;-0.70;55.33
20015;BME280;61787;42.022;23.078;2024-01-30T01:10:06;98734.13;;;-0.62;55.28
20015;BME280;61787;42.022;23.078;2024-01-30T01:11:08;98736.59;;;-0.70;55.19
20015;BME280;61787;42.022;23.078;2024-01-30T01:12:09;98735.84;;;-0.76;55.13
20015;BME280;61787;42.022;23.078;2024-01-30T01:13:11;98737.66;;;-0.66;54.57
20015;BME280;61787;42.022;23.078;2024-01-30T01:14:13;98738.50;;;-0.71;55.44
20015;BME280;61787;42.022;23.078;2024-01-30T01:15:14;98736.88;;;-0.72;55.40
20015;BME280;61787;42.022;23.078;2024-01-30T01:16:16;98733.41;;;-0.72;55.29
20015;BME280;61787;42.022;23.078;2024-01-30T01:17:18;98727.19;;;-0.63;55.14
20015;BME280;61787;42.022;23.078;2024-01-30T01:18:20;98727.19;;;-0.63;55.23
20015;BME280;61787;42.022;23.078;2024-01-30T01:19:22;98735.22;;;-0.63;55.12
20015;BME280;61787;42.022;23.078;2024-01-30T01:20:23;98726.94;;;-0.66;55.33
20015;BME280;61787;42.022;23.078;2024-01-30T01:21:25;98730.13;;;-0.64;55.33
20015;BME280;61787;42.022;23.078;2024-01-30T01:22:27;98718.38;;;-0.68;55.15
20015;BME280;61787;42.022;23.078;2024-01-30T01:23:29;98729.44;;;-0.75;55.26
20015;BME280;61787;42.022;23.078;2024-01-30T01:24:33;98731.28;;;-0.75;55.50
20015;BME280;61787;42.022;23.078;2024-01-30T01:25:35;98731.25;;;-0.70;55.55
20015;BME280;61787;42.022;23.078;2024-01-30T01:26:37;98725.16;;;-0.76;55.80
20015;BME280;61787;42.022;23.078;2024-01-30T01:27:38;98730.50;;;-0.76;55.93
20015;BME280;61787;42.022;23.078;2024-01-30T01:28:42;98727.00;;;-0.71;55.82
20015;BME280;61787;42.022;23.078;2024-01-30T01:29:44;98720.25;;;-0.69;55.33
20015;BME280;61787;42.022;23.078;2024-01-30T01:30:46;98726.41;;;-0.68;55.68
20015;BME280;61787;42.022;23.078;2024-01-30T01:31:48;98723.97;;;-0.65;54.86
20015;BME280;61787;42.022;23.078;2024-01-30T01:32:50;98729.28;;;-0.60;54.80
20015;BME280;61787;42.022;23.078;2024-01-30T01:33:56;98719.66;;;-0.61;55.09
20015;BME280;61787;42.022;23.078;2024-01-30T01:34:58;98715.91;;;-0.65;55.16
20015;BME280;61787;42.022;23.078;2024-01-30T01:36:00;98719.38;;;-0.59;54.87
20015;BME280;61787;42.022;23.078;2024-01-30T01:37:04;98720.69;;;-0.56;54.90
20015;BME280;61787;42.022;23.078;2024-01-30T01:38:05;98730.31;;;-0.55;55.16
20015;BME280;61787;42.022;23.078;2024-01-30T01:39:07;98722.34;;;-0.61;55.39
20015;BME280;61787;42.022;23.078;2024-01-30T01:40:10;98721.25;;;-0.60;55.12
20015;BME280;61787;42.022;23.078;2024-01-30T01:41:11;98726.59;;;-0.60;55.18
20015;BME280;61787;42.022;23.078;2024-01-30T01:42:13;98724.66;;;-0.54;55.20
20015;BME280;61787;42.022;23.078;2024-01-30T01:43:14;98727.97;;;-0.62;55.31
20015;BME280;61787;42.022;23.078;2024-01-30T01:44:17;98720.13;;;-0.53;55.00
20015;BME280;61787;42.022;23.078;2024-01-30T01:45:20;98722.22;;;-0.50;55.27
20015;BME280;61787;42.022;23.078;2024-01-30T01:46:22;98717.41;;;-0.48;54.79
20015;BME280;61787;42.022;23.078;2024-01-30T01:47:24;98723.09;;;-0.55;55.06
20015;BME280;61787;42.022;23.078;2024-01-30T01:48:26;98710.75;;;-0.56;54.92
20015;BME280;61787;42.022;23.078;2024-01-30T01:49:28;98722.28;;;-0.55;55.12
20015;BME280;61787;42.022;23.078;2024-01-30T01:50:30;98718.56;;;-0.60;55.05
20015;BME280;61787;42.022;23.078;2024-01-30T01:51:34;98723.50;;;-0.72;55.56
20015;BME280;61787;42.022;23.078;2024-01-30T01:52:37;98721.41;;;-0.75;55.56
20015;BME280;61787;42.022;23.078;2024-01-30T01:53:40;98725.84;;;-0.65;55.35
20015;BME280;61787;42.022;23.078;2024-01-30T01:54:41;98720.72;;;-0.62;55.05
20015;BME280;61787;42.022;23.078;2024-01-30T01:55:45;98724.44;;;-0.58;55.08
20015;BME280;61787;42.022;23.078;2024-01-30T01:56:47;98722.81;;;-0.53;54.90
20015;BME280;61787;42.022;23.078;2024-01-30T01:57:48;98723.09;;;-0.55;54.47
20015;BME280;61787;42.022;23.078;2024-01-30T01:58:54;98724.03;;;-0.70;55.30
20015;BME280;61787;42.022;23.078;2024-01-30T01:59:56;98729.09;;;-0.68;55.11
20015;BME280;61787;42.022;23.078;2024-01-30T02:00:58;98733.09;;;-0.66;54.96
20015;BME280;61787;42.022;23.078;2024-01-30T02:02:02;98728.25;;;-0.64;54.82
20015;BME280;61787;42.022;23.078;2024-01-30T02:03:04;98720.22;;;-0.64;54.52
20015;BME280;61787;42.022;23.078;2024-01-30T02:04:07;98726.13;;;-0.67;54.32
20015;BME280;61787;42.022;23.078;2024-01-30T02:05:09;98721.34;;;-0.70;54.78
20015;BME280;61787;42.022;23.078;2024-01-30T02:06:12;98725.16;;;-0.76;54.64
20015;BME280;61787;42.022;23.078;2024-01-30T02:07:14;98719.50;;;-0.74;54.61
20015;BME280;61787;42.022;23.078;2024-01-30T02:08:16;98722.22;;;-0.80;54.75
20015;BME280;61787;42.022;23.078;2024-01-30T02:09:18;98721.94;;;-0.78;54.90
20015;BME280;61787;42.022;23.078;2024-01-30T02:10:20;98724.34;;;-0.77;54.78
20015;BME280;61787;42.022;23.078;2024-01-30T02:11:22;98722.47;;;-0.76;54.75
20015;BME280;61787;42.022;23.078;2024-01-30T02:12:24;98717.66;;;-0.79;54.84
20015;BME280;61787;42.022;23.078;2024-01-30T02:13:26;98723.59;;;-0.82;55.18
20015;BME280;61787;42.022;23.078;2024-01-30T02:14:27;98721.44;;;-0.80;54.75
20015;BME280;61787;42.022;23.078;2024-01-30T02:15:31;98721.28;;;-0.94;55.20
20015;BME280;61787;42.022;23.078;2024-01-30T02:16:33;98722.63;;;-0.91;54.99
20015;BME280;61787;42.022;23.078;2024-01-30T02:17:35;98732.47;;;-0.87;55.23
20015;BME280;61787;42.022;23.078;2024-01-30T02:18:36;98723.72;;;-0.98;55.37
20015;BME280;61787;42.022;23.078;2024-01-30T02:19:43;98727.50;;;-0.99;55.61
20015;BME280;61787;42.022;23.078;2024-01-30T02:20:46;98723.94;;;-0.94;55.26
20015;BME280;61787;42.022;23.078;2024-01-30T02:21:48;98726.41;;;-0.98;55.42
20015;BME280;61787;42.022;23.078;2024-01-30T02:22:49;98723.75;;;-1.03;55.59
20015;BME280;61787;42.022;23.078;2024-01-30T02:23:53;98729.72;;;-1.11;55.95
20015;BME280;61787;42.022;23.078;2024-01-30T02:24:56;98725.44;;;-1.12;55.80
20015;BME280;61787;42.022;23.078;2024-01-30T02:25:57;98729.75;;;-1.16;55.74
20015;BME280;61787;42.022;23.078;2024-01-30T02:26:59;98721.75;;;-1.21;56.16
20015;BME280;61787;42.022;23.078;2024-01-30T02:28:01;98725.34;;;-1.36;56.62
20015;BME280;61787;42.022;23.078;2024-01-30T02:29:02;98722.16;;;-1.38;56.85
20015;BME280;61787;42.022;23.078;2024-01-30T02:30:04;98724.53;;;-1.37;56.61
20015;BME280;61787;42.022;23.078;2024-01-30T02:31:06;98723.44;;;-1.30;56.53
20015;BME280;61787;42.022;23.078;2024-01-30T02:32:08;98726.13;;;-1.36;56.88
20015;BME280;61787;42.022;23.078;2024-01-30T02:33:10;98724.59;;;-1.47;57.03
20015;BME280;61787;42.022;23.078;2024-01-30T02:34:11;98725.91;;;-1.44;57.08
20015;BME280;61787;42.022;23.078;2024-01-30T02:35:13;98719.53;;;-1.48;57.31
20015;BME280;61787;42.022;23.078;2024-01-30T02:36:15;98721.91;;;-1.42;57.19
20015;BME280;61787;42.022;23.078;2024-01-30T02:37:17;98726.41;;;-1.37;56.95
20015;BME280;61787;42.022;23.078;2024-01-30T02:38:19;98724.84;;;-1.43;56.75
20015;BME280;61787;42.022;23.078;2024-01-30T02:39:20;98721.34;;;-1.44;56.79
20015;BME280;61787;42.022;23.078;2024-01-30T02:40:22;98723.75;;;-1.42;56.81
20015;BME280;61787;42.022;23.078;2024-01-30T02:41:24;98722.72;;;-1.46;56.84
20015;BME280;61787;42.022;23.078;2024-01-30T02:42:25;98727.81;;;-1.45;56.82
20015;BME280;61787;42.022;23.078;2024-01-30T02:43:27;98727.03;;;-1.50;56.79
20015;BME280;61787;42.022;23.078;2024-01-30T02:44:29;98726.47;;;-1.47;56.64
20015;BME280;61787;42.022;23.078;2024-01-30T02:45:30;98728.88;;;-1.46;56.36
20015;BME280;61787;42.022;23.078;2024-01-30T02:46:32;98727.25;;;-1.42;56.87
20015;BME280;61787;42.022;23.078;2024-01-30T02:47:33;98726.16;;;-1.41;56.59
20015;BME280;61787;42.022;23.078;2024-01-30T02:48:35;98722.94;;;-1.38;56.47
20015;BME280;61787;42.022;23.078;2024-01-30T02:49:37;98726.13;;;-1.36;56.30
20015;BME280;61787;42.022;23.078;2024-01-30T02:50:38;98734.47;;;-1.42;56.47
20015;BME280;61787;42.022;23.078;2024-01-30T02:51:40;98724.84;;;-1.43;56.50
20015;BME280;61787;42.022;23.078;2024-01-30T02:52:42;98729.69;;;-1.45;56.55
20015;BME280;61787;42.022;23.078;2024-01-30T02:53:45;98742.75;;;-1.44;56.66
20015;BME280;61787;42.022;23.078;2024-01-30T02:54:46;98737.72;;;-1.45;56.54
20015;BME280;61787;42.022;23.078;2024-01-30T02:55:48;98734.19;;;-1.41;56.50
20015;BME280;61787;42.022;23.078;2024-01-30T02:56:50;98739.50;;;-1.36;56.13
20015;BME280;61787;42.022;23.078;2024-01-30T02:57:51;98737.59;;;-1.30;56.25
20015;BME280;61787;42.022;23.078;2024-01-30T02:58:53;98739.47;;;-1.30;56.25
20015;BME280;61787;42.022;23.078;2024-01-30T02:59:54;98742.16;;;-1.30;56.41
20015;BME280;61787;42.022;23.078;2024-01-30T03:00:56;98735.16;;;-1.26;56.11
20015;BME280;61787;42.022;23.078;2024-01-30T03:01:58;98742.91;;;-1.25;55.89
20015;BME280;61787;42.022;23.078;2024-01-30T03:03:00;98737.56;;;-1.25;56.37
20015;BME280;61787;42.022;23.078;2024-01-30T03:04:01;98737.56;;;-1.25;56.48
20015;BME280;61787;42.022;23.078;2024-01-30T03:05:05;98735.66;;;-1.19;56.24
20015;BME280;61787;42.022;23.078;2024-01-30T03:06:06;98740.47;;;-1.16;56.04
20015;BME280;61787;42.022;23.078;2024-01-30T03:07:08;98738.84;;;-1.17;56.27
20015;BME280;61787;42.022;23.078;2024-01-30T03:08:10;98729.50;;;-1.20;56.03
20015;BME280;61787;42.022;23.078;2024-01-30T03:09:12;98733.00;;;-1.24;56.27
20015;BME280;61787;42.022;23.078;2024-01-30T03:10:15;98724.97;;;-1.24;56.49
20015;BME280;61787;42.022;23.078;2024-01-30T03:11:16;98730.59;;;-1.26;56.46
20015;BME280;61787;42.022;23.078;2024-01-30T03:12:18;98727.66;;;-1.24;56.81
20015;BME280;61787;42.022;23.078;2024-01-30T03:13:19;98726.59;;;-1.23;56.73
20015;BME280;61787;42.022;23.078;2024-01-30T03:14:21;98730.81;;;-1.17;56.69
20015;BME280;61787;42.022;23.078;2024-01-30T03:15:23;98727.06;;;-1.16;56.39
20015;BME280;61787;42.022;23.078;2024-01-30T03:16:25;98727.34;;;-1.18;56.60
20015;BME280;61787;42.022;23.078;2024-01-30T03:17:26;98724.44;;;-1.21;56.80
20015;BME280;61787;42.022;23.078;2024-01-30T03:18:28;98723.91;;;-1.23;56.95
20015;BME280;61787;42.022;23.078;2024-01-30T03:19:30;98723.38;;;-1.20;57.00
20015;BME280;61787;42.022;23.078;2024-01-30T03:20:32;98727.59;;;-1.14;56.35
20015;BME280;61787;42.022;23.078;2024-01-30T03:21:33;98724.09;;;-1.09;56.32
20015;BME280;61787;42.022;23.078;2024-01-30T03:22:35;98722.69;;;-1.02;56.26
20015;BME280;61787;42.022;23.078;2024-01-30T03:23:37;98724.34;;;-1.06;56.17
20015;BME280;61787;42.022;23.078;2024-01-30T03:24:38;98732.03;;;-0.99;56.26
20015;BME280;61787;42.022;23.078;2024-01-30T03:25:40;98730.91;;;-0.93;55.96
20015;BME280;61787;42.022;23.078;2024-01-30T03:26:41;98731.94;;;-0.89;55.79
20015;BME280;61787;42.022;23.078;2024-01-30T03:27:43;98730.78;;;-0.78;55.58
20015;BME280;61787;42.022;23.078;2024-01-30T03:28:45;98737.75;;;-0.77;55.49
20015;BME280;61787;42.022;23.078;2024-01-30T03:29:46;98735.31;;;-0.73;55.15
20015;BME280;61787;42.022;23.078;2024-01-30T03:30:48;98734.78;;;-0.75;55.54
20015;BME280;61787;42.022;23.078;2024-01-30T03:31:50;98736.88;;;-0.72;55.07
20015;BME280;61787;42.022;23.078;2024-01-30T03:32:51;98737.06;;;-0.63;54.82
20015;BME280;61787;42.022;23.078;2024-01-30T03:33:53;98735.16;;;-0.58;55.10
20015;BME280;61787;42.022;23.078;2024-01-30T03:34:55;98729.31;;;-0.65;55.08
20015;BME280;61787;42.022;23.078;2024-01-30T03:35:56;98736.59;;;-0.70;55.24
20015;BME280;61787;42.022;23.078;2024-01-30T03:36:58;98728.84;;;-0.72;55.37
20015;BME280;61787;42.022;23.078;2024-01-30T03:38:00;98732.63;;;-0.73;55.49
20015;BME280;61787;42.022;23.078;2024-01-30T03:39:01;98739.25;;;-0.65;55.48
20015;BME280;61787;42.022;23.078;2024-01-30T03:40:03;98727.56;;;-0.50;54.63
20015;BME280;61787;42.022;23.078;2024-01-30T03:41:07;98725.47;;;-0.53;54.58
20015;BME280;61787;42.022;23.078;2024-01-30T03:42:09;98739.16;;;-0.55;54.44
20015;BME280;61787;42.022;23.078;2024-01-30T03:43:11;98738.06;;;-0.54;54.44
20015;BME280;61787;42.022;23.078;2024-01-30T03:44:12;98739.91;;;-0.49;54.41
20015;BME280;61787;42.022;23.078;2024-01-30T03:45:14;98734.03;;;-0.51;54.19
20015;BME280;61787;42.022;23.078;2024-01-30T03:46:16;98732.94;;;-0.50;54.34
20015;BME280;61787;42.022;23.078;2024-01-30T03:47:17;98735.06;;;-0.47;54.24
20015;BME280;61787;42.022;23.078;2024-01-30T03:48:20;98732.88;;;-0.45;53.91
20015;BME280;61787;42.022;23.078;2024-01-30T03:49:22;98732.13;;;-0.51;54.07
20015;BME280;61787;42.022;23.078;2024-01-30T03:50:24;98728.66;;;-0.51;53.88
20015;BME280;61787;42.022;23.078;2024-01-30T03:51:26;98739.94;;;-0.54;54.33
20015;BME280;61787;42.022;23.078;2024-01-30T03:52:27;98739.47;;;-0.62;54.39
20015;BME280;61787;42.022;23.078;2024-01-30T03:53:29;98739.47;;;-0.62;54.59
20015;BME280;61787;42.022;23.078;2024-01-30T03:54:31;98735.25;;;-0.68;54.92
20015;BME280;61787;42.022;23.078;2024-01-30T03:55:32;98739.25;;;-0.65;54.76
20015;BME280;61787;42.022;23.078;2024-01-30T03:56:34;98740.00;;;-0.60;54.31
20015;BME280;61787;42.022;23.078;2024-01-30T03:57:36;98738.06;;;-0.54;54.32
20015;BME280;61787;42.022;23.078;2024-01-30T03:58:37;98733.78;;;-0.55;53.89
20015;BME280;61787;42.022;23.078;2024-01-30T03:59:42;98734.59;;;-0.54;54.00
20015;BME280;61787;42.022;23.078;2024-01-30T04:00:43;98741.59;;;-0.59;53.76
20015;BME280;61787;42.022;23.078;2024-01-30T04:01:46;98738.88;;;-0.53;53.45
20015;BME280;61787;42.022;23.078;2024-01-30T04:02:48;98744.28;;;-0.59;53.74
20015;BME280;61787;42.022;23.078;2024-01-30T04:03:52;98738.44;;;-0.66;54.18
20015;BME280;61787;42.022;23.078;2024-01-30T04:04:54;98742.44;;;-0.63;54.21
20015;BME280;61787;42.022;23.078;2024-01-30T04:05:56;98737.53;;;-0.56;53.93
20015;BME280;61787;42.022;23.078;2024-01-30T04:06:57;98739.47;;;-0.62;54.14
20015;BME280;61787;42.022;23.078;2024-01-30T04:07:59;98741.59;;;-0.59;54.23
20015;BME280;61787;42.022;23.078;2024-01-30T04:09:01;98735.69;;;-0.55;54.01
20015;BME280;61787;42.022;23.078;2024-01-30T04:10:03;98739.38;;;-0.51;53.74
20015;BME280;61787;42.022;23.078;2024-01-30T04:11:07;98735.38;;;-0.54;53.88
20015;BME280;61787;42.022;23.078;2024-01-30T04:12:08;98734.41;;;-0.63;53.97
20015;BME280;61787;42.022;23.078;2024-01-30T04:13:10;98738.44;;;-0.66;53.87
20015;BME280;61787;42.022;23.078;2024-01-30T04:14:13;98737.41;;;-0.70;53.95
20015;BME280;61787;42.022;23.078;2024-01-30T04:15:14;98735.84;;;-0.76;54.17
20015;BME280;61787;42.022;23.078;2024-01-30T04:16:20;98732.66;;;-0.78;54.41
20015;BME280;61787;42.022;23.078;2024-01-30T04:17:24;98738.06;;;-0.83;54.30
20015;BME280;61787;42.022;23.078;2024-01-30T04:18:25;98736.94;;;-0.77;54.02
20015;BME280;61787;42.022;23.078;2024-01-30T04:19:27;98739.44;;;-0.86;53.73
20015;BME280;61787;42.022;23.078;2024-01-30T04:20:29;98734.59;;;-0.84;53.68
20015;BME280;61787;42.022;23.078;2024-01-30T04:21:31;98741.00;;;-0.85;53.64
20015;BME280;61787;42.022;23.078;2024-01-30T04:22:32;98736.00;;;-0.91;53.49
20015;BME280;61787;42.022;23.078;2024-01-30T04:23:34;98741.88;;;-0.89;53.12
20015;BME280;61787;42.022;23.078;2024-01-30T04:24:36;98739.25;;;-1.00;53.27
20015;BME280;61787;42.022;23.078;2024-01-30T04:25:37;98743.59;;;-1.04;52.93
20015;BME280;61787;42.022;23.078;2024-01-30T04:26:39;98738.78;;;-1.07;53.04
20015;BME280;61787;42.022;23.078;2024-01-30T04:27:41;98739.06;;;-1.08;53.25
20015;BME280;61787;42.022;23.078;2024-01-30T04:28:44;98740.69;;;-1.12;53.39
20015;BME280;61787;42.022;23.078;2024-01-30T04:29:46;98739.06;;;-1.08;52.78
20015;BME280;61787;42.022;23.078;2024-01-30T04:30:48;98739.34;;;-1.10;52.92
20015;BME280;61787;42.022;23.078;2024-01-30T04:31:49;98741.22;;;-1.10;53.10
20015;BME280;61787;42.022;23.078;2024-01-30T04:32:51;98745.50;;;-1.09;52.92
20015;BME280;61787;42.022;23.078;2024-01-30T04:33:53;98748.19;;;-1.09;52.61
20015;BME280;61787;42.022;23.078;2024-01-30T04:34:54;98736.94;;;-1.11;52.41
20015;BME280;61787;42.022;23.078;2024-01-30T04:35:56;98739.66;;;-1.17;52.81
20015;BME280;61787;42.022;23.078;2024-01-30T04:36:58;98747.47;;;-1.25;52.82
20015;BME280;61787;42.022;23.078;2024-01-30T04:37:59;98743.72;;;-1.24;52.83
20015;BME280;61787;42.022;23.078;2024-01-30T04:39:01;98747.50;;;-1.30;53.43
20015;BME280;61787;42.022;23.078;2024-01-30T04:40:03;98741.66;;;-1.32;53.85
20015;BME280;61787;42.022;23.078;2024-01-30T04:41:05;98753.16;;;-1.37;54.06
20015;BME280;61787;42.022;23.078;2024-01-30T04:42:06;98751.00;;;-1.35;54.44
20015;BME280;61787;42.022;23.078;2024-01-30T04:43:10;98748.06;;;-1.33;54.50
20015;BME280;61787;42.022;23.078;2024-01-30T04:44:11;98747.81;;;-1.37;54.77
20015;BME280;61787;42.022;23.078;2024-01-30T04:45:13;98749.69;;;-1.38;54.96
20015;BME280;61787;42.022;23.078;2024-01-30T04:46:15;98750.78;;;-1.44;55.10
20015;BME280;61787;42.022;23.078;2024-01-30T04:47:16;98748.16;;;-1.49;55.64
20015;BME280;61787;42.022;23.078;2024-01-30T04:48:18;98747.13;;;-1.58;55.91
20015;BME280;61787;42.022;23.078;2024-01-30T04:49:20;98751.94;;;-1.60;55.86
20015;BME280;61787;42.022;23.078;2024-01-30T04:50:23;98753.03;;;-1.56;55.63
20015;BME280;61787;42.022;23.078;2024-01-30T04:51:24;98749.78;;;-1.58;56.01
20015;BME280;61787;42.022;23.078;2024-01-30T04:52:26;98756.00;;;-1.63;55.97
20015;BME280;61787;42.022;23.078;2024-01-30T04:53:30;98757.88;;;-1.63;56.17
20015;BME280;61787;42.022;23.078;2024-01-30T04:54:31;98760.78;;;-1.60;56.00
20015;BME280;61787;42.022;23.078;2024-01-30T04:55:34;98766.41;;;-1.56;55.92
20015;BME280;61787;42.022;23.078;2024-01-30T04:56:37;98767.44;;;-1.52;56.00
20015;BME280;61787;42.022;23.078;2024-01-30T04:57:39;98767.44;;;-1.52;55.87
20015;BME280;61787;42.022;23.078;2024-01-30T04:58:40;98770.59;;;-1.45;55.84
20015;BME280;61787;42.022;23.078;2024-01-30T04:59:42;98764.75;;;-1.47;55.63
20015;BME280;61787;42.022;23.078;2024-01-30T05:00:44;98769.50;;;-1.44;55.65
20015;BME280;61787;42.022;23.078;2024-01-30T05:01:47;98768.19;;;-1.46;55.42
20015;BME280;61787;42.022;23.078;2024-01-30T05:02:49;98774.31;;;-1.41;55.60
20015;BME280;61787;42.022;23.078;2024-01-30T05:03:51;98775.09;;;-1.40;55.33
20015;BME280;61787;42.022;23.078;2024-01-30T05:04:52;98775.34;;;-1.31;53.95
20015;BME280;61787;42.022;23.078;2024-01-30T05:05:54;98766.78;;;-1.33;54.20
20015;BME280;61787;42.022;23.078;2024-01-30T05:06:56;98765.97;;;-1.29;53.44
20015;BME280;61787;42.022;23.078;2024-01-30T05:07:57;98760.94;;;-1.41;53.66
20015;BME280;61787;42.022;23.078;2024-01-30T05:08:59;98773.16;;;-1.24;55.79
20015;BME280;61787;42.022;23.078;2024-01-30T05:10:01;98762.44;;;-1.24;54.03
20015;BME280;61787;42.022;23.078;2024-01-30T05:11:07;98769.13;;;-1.22;52.90
20015;BME280;61787;42.022;23.078;2024-01-30T05:12:08;98772.59;;;-1.21;53.01
20015;BME280;61787;42.022;23.078;2024-01-30T05:13:10;98768.91;;;-1.25;53.03
20015;BME280;61787;42.022;23.078;2024-01-30T05:14:12;98775.56;;;-1.23;52.93
20015;BME280;61787;42.022;23.078;2024-01-30T05:15:16;98775.56;;;-1.23;53.30
20015;BME280;61787;42.022;23.078;2024-01-30T05:16:17;98780.09;;;-1.18;52.86
20015;BME280;61787;42.022;23.078;2024-01-30T05:17:20;98775.53;;;-1.18;52.75
20015;BME280;61787;42.022;23.078;2024-01-30T05:18:21;98780.34;;;-1.14;52.76
20015;BME280;61787;42.022;23.078;2024-01-30T05:19:23;98776.66;;;-1.24;52.56
20015;BME280;61787;42.022;23.078;2024-01-30T05:20:25;98778.53;;;-1.29;52.85
20015;BME280;61787;42.022;23.078;2024-01-30T05:21:29;98775.34;;;-1.31;52.72
20015;BME280;61787;42.022;23.078;2024-01-30T05:22:31;98777.44;;;-1.23;53.68
20015;BME280;61787;42.022;23.078;2024-01-30T05:23:32;98778.97;;;-1.12;53.60
20015;BME280;61787;42.022;23.078;2024-01-30T05:24:34;98776.78;;;-1.05;53.56